Time;durP1;ratioP1;P1;durP2;ratioP2;P2;SDS_P1;SDS_P2;PMS_P1;PMS_P2;Temp;Humidity;BMP_temperature;BMP_pressure;BME280_temperature;BME280_humidity;BME280_pressure;Samples;Min_cycle;Max_cycle;Signal;HPM_P1;HPM_P2
2022/04/02 00:00:55;;;;;;;8.47;3.20;;;;;;;;;;4997373;28;20030;-75
2022/04/02 00:03:21;;;;;;;10.53;3.87;;;;;;;;;;5001605;28;20038;-75
2022/04/02 00:05:47;;;;;;;10.67;3.60;;;;;;;;;;4998315;28;20022;-74
2022/04/02 00:08:14;;;;;;;9.30;3.27;;;;;;;;;;5009753;28;20075;-74
2022/04/02 00:10:39;;;;;;;7.63;3.20;;;;;;;;;;5009639;28;20034;-74
2022/04/02 00:13:05;;;;;;;17.63;3.17;;;;;;;;;;4996650;28;20038;-75
2022/04/02 00:15:30;;;;;;;11.70;3.37;;;;;;;;;;4993962;28;20025;-74
2022/04/02 00:17:56;;;;;;;12.93;4.93;;;;;;;;;;5001420;28;20042;-74
2022/04/02 00:20:22;;;;;;;12.87;4.50;;;;;;;;;;5005827;28;20022;-74
2022/04/02 00:25:32;;;;;;;11.23;4.20;;;;;;;;;;4997086;28;20230;-75
2022/04/02 00:27:58;;;;;;;11.47;3.50;;;;;;;;;;4995742;28;20038;-76
2022/04/02 00:30:23;;;;;;;11.43;3.70;;;;;;;;;;5005568;28;20076;-75
2022/04/02 00:32:49;;;;;;;13.73;4.13;;;;;;;;;;5006209;28;20129;-75
2022/04/02 00:35:15;;;;;;;11.67;3.60;;;;;;;;;;5006128;28;20022;-75
2022/04/02 00:37:41;;;;;;;6.33;3.50;;;;;;;;;;4991321;28;20034;-75
2022/04/02 00:40:08;;;;;;;12.13;3.80;;;;;;;;;;5005478;28;20161;-75
2022/04/02 00:42:34;;;;;;;10.43;3.47;;;;;;;;;;5005990;28;20610;-76
2022/04/02 00:45:00;;;;;;;9.97;3.50;;;;;;;;;;4990881;28;20405;-75
2022/04/02 00:47:26;;;;;;;18.13;4.67;;;;;;;;;;4989938;28;20215;-75
2022/04/02 00:49:53;;;;;;;14.30;3.93;;;;;;;;;;5005773;28;20354;-76
2022/04/02 00:52:20;;;;;;;14.57;3.60;;;;;;;;;;5006959;28;20026;-76
2022/04/02 00:54:49;;;;;;;14.03;4.20;;;;;;;;;;5025438;28;20073;-75
2022/04/02 00:57:16;;;;;;;10.13;3.27;;;;;;;;;;5025369;28;20049;-76
2022/04/02 00:59:41;;;;;;;14.10;4.60;;;;;;;;;;5025543;28;20041;-75
2022/04/02 01:02:07;;;;;;;5.83;3.30;;;;;;;;;;5009773;28;20140;-75
2022/04/02 01:04:32;;;;;;;11.67;4.57;;;;;;;;;;5025063;28;20485;-74
2022/04/02 01:06:59;;;;;;;10.90;4.27;;;;;;;;;;5025241;28;20029;-74
2022/04/02 01:09:25;;;;;;;10.63;4.13;;;;;;;;;;5009745;28;20018;-74
2022/04/02 01:11:52;;;;;;;9.17;3.50;;;;;;;;;;5008788;28;20689;-74
2022/04/02 01:14:18;;;;;;;16.20;4.33;;;;;;;;;;5008436;28;20121;-74
2022/04/02 01:16:44;;;;;;;9.10;4.10;;;;;;;;;;5009940;28;20353;-74
2022/04/02 01:19:10;;;;;;;12.80;4.63;;;;;;;;;;5024832;28;20057;-73
2022/04/02 01:21:36;;;;;;;6.10;3.80;;;;;;;;;;5024984;28;20026;-74
2022/04/02 01:24:02;;;;;;;18.33;5.00;;;;;;;;;;5009816;28;20030;-74
2022/04/02 01:26:28;;;;;;;5.57;3.70;;;;;;;;;;5024634;28;20506;-73
2022/04/02 01:28:58;;;;;;;11.23;4.47;;;;;;;;;;5024695;28;20057;-73
2022/04/02 01:31:26;;;;;;;9.67;3.93;;;;;;;;;;5024342;28;20030;-74
2022/04/02 01:33:52;;;;;;;19.73;4.80;;;;;;;;;;5009803;28;20182;-73
2022/04/02 01:36:19;;;;;;;10.57;4.20;;;;;;;;;;5024471;28;20261;-73
2022/04/02 01:38:46;;;;;;;11.77;3.97;;;;;;;;;;5024737;28;20053;-73
2022/04/02 01:41:12;;;;;;;15.60;4.67;;;;;;;;;;5024320;28;20497;-74
2022/04/02 01:43:37;;;;;;;10.73;3.90;;;;;;;;;;5024742;28;20103;-74
2022/04/02 01:46:03;;;;;;;9.97;4.83;;;;;;;;;;5024816;28;20136;-74
2022/04/02 01:48:30;;;;;;;11.37;4.30;;;;;;;;;;5024551;28;20083;-74
2022/04/02 01:50:56;;;;;;;9.03;4.03;;;;;;;;;;5009863;28;20037;-74
2022/04/02 01:53:23;;;;;;;10.07;3.80;;;;;;;;;;5013459;28;20109;-74
2022/04/02 01:55:51;;;;;;;8.73;4.57;;;;;;;;;;5028572;28;20040;-74
2022/04/02 01:58:17;;;;;;;10.13;4.77;;;;;;;;;;5012083;28;20026;-73
2022/04/02 02:00:43;;;;;;;13.40;4.93;;;;;;;;;;5013465;28;20478;-73
2022/04/02 02:03:10;;;;;;;13.90;5.10;;;;;;;;;;5028470;28;20045;-73
2022/04/02 02:05:36;;;;;;;10.60;3.97;;;;;;;;;;5028518;28;20052;-73
2022/04/02 02:08:03;;;;;;;10.83;4.37;;;;;;;;;;5028715;28;20482;-74
2022/04/02 02:10:29;;;;;;;9.10;4.57;;;;;;;;;;5028214;28;20437;-74
2022/04/02 02:12:55;;;;;;;10.17;4.70;;;;;;;;;;5028399;28;20076;-73
2022/04/02 02:15:22;;;;;;;18.67;4.83;;;;;;;;;;5028310;28;20378;-73
2022/04/02 02:17:48;;;;;;;10.73;5.03;;;;;;;;;;5013104;28;20054;-74
2022/04/02 02:20:15;;;;;;;17.10;4.97;;;;;;;;;;5027656;28;20025;-73
2022/04/02 02:22:42;;;;;;;10.07;4.40;;;;;;;;;;5013640;28;20028;-74
2022/04/02 02:25:09;;;;;;;6.40;3.97;;;;;;;;;;5013501;28;20152;-73
2022/04/02 02:27:35;;;;;;;20.33;4.60;;;;;;;;;;5011793;28;20018;-74
2022/04/02 02:30:06;;;;;;;13.30;4.13;;;;;;;;;;5029291;28;20022;-73
2022/04/02 02:32:36;;;;;;;11.73;4.50;;;;;;;;;;5015125;28;20132;-73
2022/04/02 02:37:48;;;;;;;17.00;4.23;;;;;;;;;;5012503;28;20109;-73
2022/04/02 02:40:14;;;;;;;16.00;4.43;;;;;;;;;;5011645;28;20648;-73
2022/04/02 02:42:40;;;;;;;14.17;4.73;;;;;;;;;;5027597;28;20026;-73
2022/04/02 02:45:06;;;;;;;9.57;3.90;;;;;;;;;;5027962;28;20045;-74
2022/04/02 02:47:32;;;;;;;8.13;4.43;;;;;;;;;;5011079;28;20030;-73
2022/04/02 02:49:58;;;;;;;10.00;3.63;;;;;;;;;;5027893;28;20079;-73
2022/04/02 02:52:23;;;;;;;10.97;4.30;;;;;;;;;;5027616;28;20052;-72
2022/04/02 02:54:49;;;;;;;9.97;3.93;;;;;;;;;;5012550;28;20034;-72
2022/04/02 02:57:14;;;;;;;9.97;4.93;;;;;;;;;;5027243;28;20482;-73
2022/04/02 02:59:40;;;;;;;11.90;4.67;;;;;;;;;;5012218;28;20037;-72
2022/04/02 03:02:06;;;;;;;11.23;4.20;;;;;;;;;;5012349;28;20026;-73
2022/04/02 03:04:31;;;;;;;11.23;4.17;;;;;;;;;;5027280;28;20033;-74
2022/04/02 03:06:57;;;;;;;9.43;4.93;;;;;;;;;;5027451;28;20350;-73
2022/04/02 03:09:23;;;;;;;11.20;4.00;;;;;;;;;;5012014;28;20520;-74
2022/04/02 03:11:49;;;;;;;9.63;4.50;;;;;;;;;;5027450;28;20548;-73
2022/04/02 03:14:15;;;;;;;8.53;4.57;;;;;;;;;;5012447;28;20030;-74
2022/04/02 03:16:42;;;;;;;16.43;5.03;;;;;;;;;;5026794;28;20446;-74
2022/04/02 03:19:07;;;;;;;8.17;4.50;;;;;;;;;;5027239;28;20029;-73
2022/04/02 03:21:35;;;;;;;16.57;5.83;;;;;;;;;;5010847;28;20079;-73
2022/04/02 03:24:01;;;;;;;14.40;4.53;;;;;;;;;;5012044;28;20651;-73
2022/04/02 03:26:27;;;;;;;8.90;3.87;;;;;;;;;;5026644;28;20029;-74
2022/04/02 03:28:52;;;;;;;13.83;4.33;;;;;;;;;;5026898;28;20045;-73
2022/04/02 03:31:18;;;;;;;14.23;4.70;;;;;;;;;;5010326;28;20025;-73
2022/04/02 03:33:44;;;;;;;8.03;4.60;;;;;;;;;;5026900;28;20128;-73
2022/04/02 03:36:14;;;;;;;19.23;5.00;;;;;;;;;;5010416;28;20069;-74
2022/04/02 03:38:41;;;;;;;8.43;4.50;;;;;;;;;;5010619;28;20456;-73
2022/04/02 03:41:06;;;;;;;9.43;4.10;;;;;;;;;;5026631;28;20038;-73
2022/04/02 03:43:32;;;;;;;11.83;4.20;;;;;;;;;;5011380;28;20128;-73
2022/04/02 03:47:08;;;;;;;10.00;4.20;;;;;;;;;;5026860;28;20064;-74
2022/04/02 03:48:44;;;;;;;8.13;4.83;;;;;;;;;;5011491;28;20084;-74
2022/04/02 03:51:10;;;;;;;9.87;3.93;;;;;;;;;;5009977;28;20038;-72
2022/04/02 03:53:36;;;;;;;13.23;4.63;;;;;;;;;;5026171;28;20037;-73
2022/04/02 03:56:03;;;;;;;7.80;4.37;;;;;;;;;;5010060;28;20048;-75
2022/04/02 03:58:31;;;;;;;15.33;4.33;;;;;;;;;;5009903;28;20030;-74
2022/04/02 04:00:57;;;;;;;11.90;5.40;;;;;;;;;;5026350;28;20477;-74
2022/04/02 04:03:23;;;;;;;8.60;4.20;;;;;;;;;;5010898;28;20478;-74
2022/04/02 04:05:48;;;;;;;16.60;4.80;;;;;;;;;;5011210;28;20112;-73
2022/04/02 04:08:14;;;;;;;7.40;3.90;;;;;;;;;;5025977;28;20022;-74
2022/04/02 04:10:41;;;;;;;9.97;4.57;;;;;;;;;;5011165;28;20371;-74
2022/04/02 04:13:07;;;;;;;9.07;4.47;;;;;;;;;;5011274;28;20044;-74
2022/04/02 04:15:33;;;;;;;9.30;4.57;;;;;;;;;;5010222;28;20647;-74
2022/04/02 04:17:59;;;;;;;7.93;4.00;;;;;;;;;;5025920;28;20320;-74
2022/04/02 04:20:24;;;;;;;8.30;4.17;;;;;;;;;;5025804;28;20078;-74
2022/04/02 04:22:50;;;;;;;9.83;4.57;;;;;;;;;;5025987;28;20057;-74
2022/04/02 04:25:16;;;;;;;12.17;4.67;;;;;;;;;;5010658;28;20534;-74
2022/04/02 04:27:41;;;;;;;11.87;5.07;;;;;;;;;;5026130;28;20405;-74
2022/04/02 04:30:08;;;;;;;14.13;4.20;;;;;;;;;;5026135;28;20022;-74
2022/04/02 04:32:34;;;;;;;11.77;5.17;;;;;;;;;;5025730;28;20091;-74
2022/04/02 04:34:59;;;;;;;8.20;3.50;;;;;;;;;;5011108;28;20466;-74
2022/04/02 04:37:25;;;;;;;13.40;4.70;;;;;;;;;;5025696;28;20422;-73
2022/04/02 04:39:51;;;;;;;7.17;4.63;;;;;;;;;;5010483;28;20049;-73
2022/04/02 04:42:16;;;;;;;10.80;5.07;;;;;;;;;;5008872;28;20113;-74
2022/04/02 04:44:43;;;;;;;13.77;4.37;;;;;;;;;;5025573;28;20082;-74
2022/04/02 04:47:09;;;;;;;11.27;4.63;;;;;;;;;;5010207;28;20107;-73
2022/04/02 04:49:35;;;;;;;9.33;5.50;;;;;;;;;;5025018;28;20483;-74
2022/04/02 04:52:01;;;;;;;11.43;4.93;;;;;;;;;;5025415;28;20060;-74
2022/04/02 04:54:27;;;;;;;9.60;4.13;;;;;;;;;;5025382;28;20037;-74
2022/04/02 04:56:52;;;;;;;5.90;3.77;;;;;;;;;;5025310;28;20044;-74
2022/04/02 04:59:18;;;;;;;9.67;4.93;;;;;;;;;;5025279;28;20474;-74
2022/04/02 05:01:43;;;;;;;16.13;4.10;;;;;;;;;;5025414;28;20033;-73
2022/04/02 05:04:09;;;;;;;10.37;4.53;;;;;;;;;;5025490;28;20117;-74
2022/04/02 05:06:35;;;;;;;11.00;4.87;;;;;;;;;;5024843;28;20041;-74
2022/04/02 05:09:01;;;;;;;7.93;4.43;;;;;;;;;;5024816;28;20430;-73
2022/04/02 05:11:27;;;;;;;10.00;4.50;;;;;;;;;;5024634;28;20036;-73
2022/04/02 05:13:53;;;;;;;10.80;3.97;;;;;;;;;;5008759;28;20231;-74
2022/04/02 05:16:18;;;;;;;15.87;4.43;;;;;;;;;;5009708;28;20109;-73
2022/04/02 05:18:46;;;;;;;8.70;4.37;;;;;;;;;;5010243;28;20371;-73
2022/04/02 05:21:12;;;;;;;9.47;4.73;;;;;;;;;;5008610;28;20129;-74
2022/04/02 05:23:37;;;;;;;9.00;4.30;;;;;;;;;;5024940;28;20128;-75
2022/04/02 05:26:03;;;;;;;10.67;4.67;;;;;;;;;;5024388;28;20064;-74
2022/04/02 05:28:28;;;;;;;7.03;4.67;;;;;;;;;;5008354;28;20470;-73
2022/04/02 05:30:54;;;;;;;8.20;4.50;;;;;;;;;;5009882;28;20073;-74
2022/04/02 05:33:21;;;;;;;8.40;3.57;;;;;;;;;;5008410;28;20853;-73
2022/04/02 05:35:48;;;;;;;9.80;4.83;;;;;;;;;;4992417;28;20038;-73
2022/04/02 05:38:14;;;;;;;10.13;4.77;;;;;;;;;;5025048;28;20377;-73
2022/04/02 05:40:39;;;;;;;12.10;5.37;;;;;;;;;;5024736;28;20505;-74
2022/04/02 05:43:06;;;;;;;9.67;4.87;;;;;;;;;;5025392;28;20038;-73
2022/04/02 05:45:33;;;;;;;9.37;4.50;;;;;;;;;;5009816;28;20033;-74
2022/04/02 05:47:59;;;;;;;7.40;4.37;;;;;;;;;;5010025;28;20030;-74
2022/04/02 05:50:26;;;;;;;11.63;4.83;;;;;;;;;;5024933;28;20360;-74
2022/04/02 05:52:52;;;;;;;10.13;4.23;;;;;;;;;;5024752;28;20054;-73
2022/04/02 05:55:19;;;;;;;9.87;4.77;;;;;;;;;;5025198;28;20176;-73
2022/04/02 05:57:46;;;;;;;12.47;4.73;;;;;;;;;;5009477;28;20037;-73
2022/04/02 06:00:16;;;;;;;7.27;4.50;;;;;;;;;;5024535;28;20030;-73
2022/04/02 06:02:43;;;;;;;13.70;5.37;;;;;;;;;;5007790;28;20029;-73
2022/04/02 06:05:12;;;;;;;11.80;5.27;;;;;;;;;;5009385;28;20477;-74
2022/04/02 06:07:37;;;;;;;7.77;4.13;;;;;;;;;;5009295;28;20060;-73
2022/04/02 06:10:04;;;;;;;11.93;5.23;;;;;;;;;;5024669;28;20470;-73
2022/04/02 06:12:31;;;;;;;12.03;5.03;;;;;;;;;;5024531;28;20482;-74
2022/04/02 06:14:57;;;;;;;11.97;4.77;;;;;;;;;;4992192;28;20037;-74
2022/04/02 06:17:23;;;;;;;15.93;5.50;;;;;;;;;;5007730;28;20058;-74
2022/04/02 06:19:48;;;;;;;14.57;5.53;;;;;;;;;;5009697;28;20128;-72
2022/04/02 06:22:14;;;;;;;9.20;4.80;;;;;;;;;;5025047;28;20112;-74
2022/04/02 06:24:40;;;;;;;9.23;5.10;;;;;;;;;;5007662;28;20029;-73
2022/04/02 06:27:06;;;;;;;11.00;5.00;;;;;;;;;;5012178;28;20022;-74
2022/04/02 06:29:31;;;;;;;11.80;5.80;;;;;;;;;;5026764;28;20025;-73
2022/04/02 06:31:57;;;;;;;9.83;5.57;;;;;;;;;;5009823;28;20449;-72
2022/04/02 06:34:22;;;;;;;14.20;5.30;;;;;;;;;;5025700;28;20037;-73
2022/04/02 06:36:48;;;;;;;10.53;4.40;;;;;;;;;;5025188;28;20408;-74
2022/04/02 06:39:14;;;;;;;7.70;4.90;;;;;;;;;;5027861;28;20030;-74
2022/04/02 06:41:40;;;;;;;15.13;6.27;;;;;;;;;;5028071;28;20132;-74
2022/04/02 06:44:08;;;;;;;11.40;4.70;;;;;;;;;;5027658;28;20075;-74
2022/04/02 06:46:34;;;;;;;14.47;4.90;;;;;;;;;;5027868;28;20082;-74
2022/04/02 06:49:00;;;;;;;10.50;4.53;;;;;;;;;;5012612;28;20038;-74
2022/04/02 06:51:26;;;;;;;13.57;5.13;;;;;;;;;;5012560;28;20022;-74
2022/04/02 06:53:52;;;;;;;12.40;4.40;;;;;;;;;;5027797;28;20030;-73
2022/04/02 06:56:18;;;;;;;15.23;5.00;;;;;;;;;;5027998;28;20059;-74
2022/04/02 06:58:44;;;;;;;10.33;4.87;;;;;;;;;;5011003;28;20032;-73
2022/04/02 07:01:10;;;;;;;8.03;4.90;;;;;;;;;;5011325;28;20068;-74
2022/04/02 07:03:37;;;;;;;9.27;4.50;;;;;;;;;;5012557;28;20085;-73
2022/04/02 07:06:02;;;;;;;15.43;5.03;;;;;;;;;;5011334;28;20080;-73
2022/04/02 07:08:29;;;;;;;8.97;4.67;;;;;;;;;;5027325;28;20030;-74
2022/04/02 07:10:57;;;;;;;8.63;4.53;;;;;;;;;;5027578;28;20018;-73
2022/04/02 07:13:24;;;;;;;10.10;5.23;;;;;;;;;;5012065;28;20022;-74
2022/04/02 07:15:50;;;;;;;9.33;5.30;;;;;;;;;;5012385;28;20121;-75
2022/04/02 07:18:16;;;;;;;8.37;4.93;;;;;;;;;;5027294;28;20125;-75
2022/04/02 07:20:42;;;;;;;20.90;6.67;;;;;;;;;;5012093;28;20026;-73
2022/04/02 07:23:09;;;;;;;9.67;4.70;;;;;;;;;;4994567;28;20084;-74
2022/04/02 07:25:39;;;;;;;10.07;4.60;;;;;;;;;;5011838;28;20021;-75
2022/04/02 07:28:08;;;;;;;8.33;3.93;;;;;;;;;;5027381;28;20478;-74
2022/04/02 07:30:35;;;;;;;10.60;3.90;;;;;;;;;;5026634;28;20022;-74
2022/04/02 07:33:02;;;;;;;11.57;4.70;;;;;;;;;;5026993;28;20030;-74
2022/04/02 07:35:35;;;;;;;8.10;3.83;;;;;;;;;;5028959;28;20022;-72
2022/04/02 07:38:12;;;;;;;7.00;4.20;;;;;;;;;;5013873;28;20110;-73
2022/04/02 07:40:46;;;;;;;12.97;4.60;;;;;;;;;;5011796;28;20018;-74
2022/04/02 07:43:25;;;;;;;6.87;4.40;;;;;;;;;;5010671;28;20030;-74
2022/04/02 07:46:06;;;;;;;7.80;4.27;;;;;;;;;;5026867;28;20034;-73
2022/04/02 07:48:36;;;;;;;10.00;4.80;;;;;;;;;;5026161;28;20497;-74
2022/04/02 07:51:10;;;;;;;9.77;4.63;;;;;;;;;;5011699;28;20026;-75
2022/04/02 07:53:45;;;;;;;9.60;3.83;;;;;;;;;;5026622;28;20026;-73
2022/04/02 07:56:19;;;;;;;9.60;5.43;;;;;;;;;;5027066;28;20056;-74
2022/04/02 07:58:52;;;;;;;4.63;3.77;;;;;;;;;;5011301;28;20521;-75
2022/04/02 08:01:19;;;;;;;8.00;3.53;;;;;;;;;;5011351;28;20089;-74
2022/04/02 08:03:45;;;;;;;10.17;4.13;;;;;;;;;;5026212;28;20121;-74
2022/04/02 08:06:13;;;;;;;7.90;4.43;;;;;;;;;;5011245;28;20115;-74
2022/04/02 08:08:41;;;;;;;8.77;4.33;;;;;;;;;;5026101;28;20028;-73
2022/04/02 08:11:08;;;;;;;5.93;3.87;;;;;;;;;;5010285;28;20033;-75
2022/04/02 08:13:36;;;;;;;9.50;4.03;;;;;;;;;;5011283;28;20029;-74
2022/04/02 08:16:01;;;;;;;12.77;4.83;;;;;;;;;;5011385;28;20529;-74
2022/04/02 08:18:30;;;;;;;10.60;4.37;;;;;;;;;;5014476;28;20066;-77
2022/04/02 08:20:56;;;;;;;7.83;4.97;;;;;;;;;;5005706;28;20085;-73
2022/04/02 08:23:22;;;;;;;12.37;4.77;;;;;;;;;;5007237;28;20034;-74
2022/04/02 08:26:04;;;;;;;11.80;4.47;;;;;;;;;;5007180;28;20030;-74
2022/04/02 08:29:02;;;;;;;5.82;3.75;;;;;;;;;;4993754;28;20038;-74
2022/04/02 08:31:54;;;;;;;8.03;3.90;;;;;;;;;;4987482;28;20026;-74
2022/04/02 08:34:47;;;;;;;9.27;4.28;;;;;;;;;;4995930;28;20105;-73
2022/04/02 08:37:25;;;;;;;8.53;3.87;;;;;;;;;;4997624;28;20034;-74
2022/04/02 08:40:36;;;;;;;8.60;3.90;;;;;;;;;;4998973;28;20590;-75
2022/04/02 08:43:39;;;;;;;6.30;4.07;;;;;;;;;;4999102;28;20030;-74
2022/04/02 08:46:53;;;;;;;9.57;5.00;;;;;;;;;;4996819;28;20024;-74
2022/04/02 08:49:45;;;;;;;6.13;4.30;;;;;;;;;;4988746;28;20034;-76
2022/04/02 08:52:13;;;;;;;11.73;4.90;;;;;;;;;;4988503;28;20050;-75
2022/04/02 08:54:46;;;;;;;5.70;3.80;;;;;;;;;;4991696;28;20034;-75
2022/04/02 08:57:21;;;;;;;7.83;4.37;;;;;;;;;;4991120;28;20145;-75
2022/04/02 08:59:58;;;;;;;6.40;3.83;;;;;;;;;;4990541;28;20054;-77
2022/04/02 09:03:02;;;;;;;5.97;3.70;;;;;;;;;;4995506;28;20022;-76
2022/04/02 09:06:01;;;;;;;6.60;4.00;;;;;;;;;;4993259;28;20018;-75
2022/04/02 09:09:00;;;;;;;10.03;4.37;;;;;;;;;;4989553;28;20157;-75
2022/04/02 09:11:32;;;;;;;13.70;5.13;;;;;;;;;;4989316;28;20139;-76
2022/04/02 09:14:36;;;;;;;5.68;4.07;;;;;;;;;;4989718;28;20071;-76
2022/04/02 09:17:09;;;;;;;7.93;4.87;;;;;;;;;;4989139;28;20046;-76
2022/04/02 09:19:58;;;;;;;10.43;4.17;;;;;;;;;;4988834;28;20725;-73
2022/04/02 09:22:41;;;;;;;9.57;4.10;;;;;;;;;;4990753;28;20038;-76
2022/04/02 09:25:12;;;;;;;7.50;4.17;;;;;;;;;;4990530;28;20052;-76
2022/04/02 09:28:04;;;;;;;9.32;4.85;;;;;;;;;;4989586;28;20053;-74
2022/04/02 09:31:07;;;;;;;9.43;4.55;;;;;;;;;;4989333;28;20034;-75
2022/04/02 09:33:43;;;;;;;9.10;4.30;;;;;;;;;;4989351;28;20022;-76
2022/04/02 09:36:34;;;;;;;6.37;3.97;;;;;;;;;;4989285;28;20034;-76
2022/04/02 09:39:05;;;;;;;6.73;4.27;;;;;;;;;;4989066;28;20023;-75
2022/04/02 09:41:40;;;;;;;6.35;3.53;;;;;;;;;;4990476;28;20025;-76
2022/04/02 09:44:08;;;;;;;6.10;3.87;;;;;;;;;;4989290;28;20421;-74
2022/04/02 09:47:04;;;;;;;7.10;4.40;;;;;;;;;;4988750;28;20041;-76
2022/04/02 09:50:08;;;;;;;4.47;3.13;;;;;;;;;;4988939;28;20030;-75
2022/04/02 09:52:45;;;;;;;7.23;3.80;;;;;;;;;;4990667;28;20031;-75
2022/04/02 09:55:14;;;;;;;4.50;3.63;;;;;;;;;;4990594;28;20061;-75
2022/04/02 09:58:19;;;;;;;6.03;3.67;;;;;;;;;;4989226;28;20121;-75
2022/04/02 10:00:56;;;;;;;6.63;3.57;;;;;;;;;;4989281;28;20022;-76
2022/04/02 10:03:53;;;;;;;7.33;5.03;;;;;;;;;;4989104;28;20026;-76
2022/04/02 10:06:24;;;;;;;5.13;3.27;;;;;;;;;;4989017;28;20061;-75
2022/04/02 10:08:49;;;;;;;7.63;4.77;;;;;;;;;;4988654;28;20113;-74
2022/04/02 10:11:18;;;;;;;7.53;4.00;;;;;;;;;;4988829;28;20493;-75
2022/04/02 10:13:45;;;;;;;9.47;4.20;;;;;;;;;;4976035;28;20398;-76
2022/04/02 10:16:14;;;;;;;7.23;4.20;;;;;;;;;;4994245;28;20173;-76
2022/04/02 10:18:41;;;;;;;10.23;4.60;;;;;;;;;;4992858;28;20029;-76
2022/04/02 10:21:09;;;;;;;7.17;4.57;;;;;;;;;;4992619;28;20046;-77
2022/04/02 10:23:37;;;;;;;8.37;4.00;;;;;;;;;;4992778;28;20022;-75
2022/04/02 10:26:15;;;;;;;9.67;4.50;;;;;;;;;;4992852;28;20101;-75
2022/04/02 10:28:52;;;;;;;7.00;4.37;;;;;;;;;;4993728;28;20040;-76
2022/04/02 10:31:36;;;;;;;6.67;3.10;;;;;;;;;;4996549;28;20028;-75
2022/04/02 10:34:43;;;;;;;8.93;3.70;;;;;;;;;;5001855;28;20049;-78
2022/04/02 10:37:13;;;;;;;6.13;4.13;;;;;;;;;;5011113;28;20038;-76
2022/04/02 10:39:54;;;;;;;8.43;3.70;;;;;;;;;;4993679;28;20042;-75
2022/04/02 10:42:35;;;;;;;5.47;3.73;;;;;;;;;;4992634;28;20057;-75
2022/04/02 10:45:14;;;;;;;5.97;4.50;;;;;;;;;;4992312;28;20033;-76
2022/04/02 10:47:56;;;;;;;6.93;3.83;;;;;;;;;;4993308;28;20361;-74
2022/04/02 10:50:25;;;;;;;6.73;4.43;;;;;;;;;;5000860;28;20022;-75
2022/04/02 10:52:51;;;;;;;9.43;4.27;;;;;;;;;;5011015;28;20423;-75
2022/04/02 10:55:24;;;;;;;8.37;4.30;;;;;;;;;;5011956;28;20098;-76
2022/04/02 10:57:49;;;;;;;17.53;4.53;;;;;;;;;;5008213;28;20038;-77
2022/04/02 11:00:16;;;;;;;6.23;4.27;;;;;;;;;;4999565;28;20404;-76
2022/04/02 11:02:46;;;;;;;7.77;4.03;;;;;;;;;;5011341;28;20025;-77
2022/04/02 11:05:17;;;;;;;5.97;3.60;;;;;;;;;;5011480;28;20024;-76
2022/04/02 11:07:45;;;;;;;7.75;4.00;;;;;;;;;;5012526;28;20022;-76
2022/04/02 11:10:17;;;;;;;5.97;3.70;;;;;;;;;;5029277;28;20084;-77
2022/04/02 11:12:44;;;;;;;14.27;4.20;;;;;;;;;;5009843;28;20116;-76
2022/04/02 11:15:19;;;;;;;10.83;4.87;;;;;;;;;;5010002;28;20585;-76
2022/04/02 11:17:47;;;;;;;6.00;3.80;;;;;;;;;;5011086;28;20057;-78
2022/04/02 11:20:17;;;;;;;9.13;4.30;;;;;;;;;;5011247;28;20029;-75
2022/04/02 11:22:43;;;;;;;7.37;4.67;;;;;;;;;;5027497;28;20636;-76
2022/04/02 11:25:32;;;;;;;10.13;5.33;;;;;;;;;;5009796;28;20126;-76
2022/04/02 11:28:13;;;;;;;7.00;3.83;;;;;;;;;;5011097;28;20055;-77
2022/04/02 11:30:45;;;;;;;8.13;3.83;;;;;;;;;;5027479;28;20113;-78
2022/04/02 11:33:19;;;;;;;5.23;3.33;;;;;;;;;;5010789;28;20033;-77
2022/04/02 11:35:57;;;;;;;5.27;3.33;;;;;;;;;;5027051;28;20486;-77
2022/04/02 11:38:44;;;;;;;7.60;4.70;;;;;;;;;;5010887;28;20038;-77
2022/04/02 11:41:22;;;;;;;7.70;3.47;;;;;;;;;;5027845;28;20037;-77
2022/04/02 11:43:51;;;;;;;7.10;4.17;;;;;;;;;;5011925;28;20041;-74
2022/04/02 11:46:20;;;;;;;13.93;4.83;;;;;;;;;;5026896;28;20022;-77
2022/04/02 11:48:54;;;;;;;8.33;3.73;;;;;;;;;;5026425;28;20022;-77
2022/04/02 11:51:23;;;;;;;4.47;3.27;;;;;;;;;;5027047;28;20087;-77
2022/04/02 11:53:50;;;;;;;7.77;4.17;;;;;;;;;;5012115;28;20018;-77
2022/04/02 11:56:26;;;;;;;6.40;4.53;;;;;;;;;;5010977;28;20065;-79
2022/04/02 11:58:54;;;;;;;18.20;6.10;;;;;;;;;;5012146;28;20025;-77
2022/04/02 12:01:21;;;;;;;6.87;3.93;;;;;;;;;;5011793;28;20366;-78
2022/04/02 12:04:09;;;;;;;9.83;5.73;;;;;;;;;;5011341;28;20490;-77
2022/04/02 12:06:36;;;;;;;9.00;4.10;;;;;;;;;;5012418;28;20454;-77
2022/04/02 12:09:21;;;;;;;9.23;3.30;;;;;;;;;;5027028;28;20156;-77
2022/04/02 12:11:51;;;;;;;5.97;3.83;;;;;;;;;;5010358;28;20497;-76
2022/04/02 12:14:39;;;;;;;8.27;3.00;;;;;;;;;;5010447;28;20018;-76
2022/04/02 12:17:12;;;;;;;4.83;3.60;;;;;;;;;;5011041;28;20073;-76
2022/04/02 12:19:45;;;;;;;15.67;5.73;;;;;;;;;;5026688;28;20405;-74
2022/04/02 12:22:19;;;;;;;;;;;;;;;;;;5011745;28;20036;-77
2022/04/02 12:24:48;;;;;;;3.80;2.83;;;;;;;;;;5009966;28;20012;-76
2022/04/02 12:27:24;;;;;;;7.33;3.77;;;;;;;;;;5010505;28;20029;-77
2022/04/02 12:29:52;;;;;;;10.70;3.60;;;;;;;;;;5021924;28;20014;-76
2022/04/02 12:32:43;;;;;;;8.83;4.00;;;;;;;;;;5045436;28;20093;-76
2022/04/02 12:35:11;;;;;;;7.27;3.40;;;;;;;;;;5027323;28;20041;-76
2022/04/02 12:37:51;;;;;;;10.33;4.00;;;;;;;;;;5014309;28;20026;-77
2022/04/02 12:40:25;;;;;;;6.73;3.70;;;;;;;;;;5027839;28;20112;-76
2022/04/02 12:42:53;;;;;;;7.33;3.83;;;;;;;;;;5011989;28;20041;-76
2022/04/02 12:45:22;;;;;;;5.43;3.87;;;;;;;;;;5027400;28;20132;-76
2022/04/02 12:48:03;;;;;;;5.67;3.70;;;;;;;;;;5010518;28;20018;-77
2022/04/02 12:50:32;;;;;;;8.73;3.87;;;;;;;;;;5026477;28;20113;-77
2022/04/02 12:52:58;;;;;;;7.37;3.50;;;;;;;;;;5026385;28;20371;-79
2022/04/02 12:55:34;;;;;;;6.20;4.17;;;;;;;;;;5026268;28;20088;-77
2022/04/02 12:58:08;;;;;;;8.20;4.10;;;;;;;;;;5027473;28;20492;-77
2022/04/02 13:00:43;;;;;;;7.80;4.60;;;;;;;;;;5009562;28;20059;-78
2022/04/02 13:03:09;;;;;;;8.67;3.37;;;;;;;;;;5009589;28;20635;-77
2022/04/02 13:05:46;;;;;;;6.50;3.13;;;;;;;;;;5026741;28;20474;-77
2022/04/02 13:08:22;;;;;;;9.77;3.53;;;;;;;;;;5011293;28;20541;-78
2022/04/02 13:10:53;;;;;;;10.00;3.10;;;;;;;;;;5026464;28;20302;-77
2022/04/02 13:13:42;;;;;;;5.90;3.43;;;;;;;;;;5013662;28;20041;-75
2022/04/02 13:16:10;;;;;;;7.53;3.90;;;;;;;;;;5011489;28;20026;-77
2022/04/02 13:21:31;;;;;;;4.80;2.97;;;;;;;;;;5012417;28;20383;-79
2022/04/02 13:24:22;;;;;;;4.47;3.30;;;;;;;;;;5009234;28;20551;-77
2022/04/02 13:27:08;;;;;;;8.53;3.00;;;;;;;;;;5009175;28;20414;-78
2022/04/02 13:30:03;;;;;;;6.00;3.20;;;;;;;;;;5010836;28;20093;-77
2022/04/02 13:32:31;;;;;;;6.47;3.03;;;;;;;;;;5010735;28;20022;-77
2022/04/02 13:35:10;;;;;;;6.17;2.80;;;;;;;;;;5009260;28;20092;-77
2022/04/02 13:38:08;;;;;;;6.67;3.40;;;;;;;;;;5025949;28;20033;-77
2022/04/02 13:40:37;;;;;;;5.93;3.00;;;;;;;;;;5009270;28;20108;-77
2022/04/02 13:43:10;;;;;;;6.43;2.90;;;;;;;;;;5025236;28;20026;-79
2022/04/02 13:45:42;;;;;;;;;;;;;;;;;;5009682;28;20026;-77
2022/04/02 13:48:09;;;;;;;;;;;;;;;;;;5025375;28;19917;-76
2022/04/02 13:50:39;;;;;;;2.70;2.33;;;;;;;;;;5025303;28;20367;-77
2022/04/02 13:53:06;;;;;;;6.20;3.00;;;;;;;;;;5025535;28;20112;-77
2022/04/02 13:55:35;;;;;;;3.87;2.57;;;;;;;;;;5025915;28;20088;-77
2022/04/02 13:58:10;;;;;;;4.73;2.67;;;;;;;;;;4993153;28;20044;-78
2022/04/02 14:00:42;;;;;;;6.60;3.23;;;;;;;;;;5010766;28;20544;-78
2022/04/02 14:03:09;;;;;;;5.57;2.43;;;;;;;;;;5008857;28;20036;-77
2022/04/02 14:05:40;;;;;;;8.70;3.20;;;;;;;;;;5025565;28;20018;-77
2022/04/02 14:08:07;;;;;;;7.90;3.13;;;;;;;;;;5025781;28;20427;-77
2022/04/02 14:10:40;;;;;;;5.63;3.13;;;;;;;;;;5009430;28;20481;-79
2022/04/02 14:13:11;;;;;;;5.83;2.93;;;;;;;;;;5010163;28;20116;-78
2022/04/02 14:15:47;;;;;;;4.72;3.00;;;;;;;;;;5010215;28;20113;-77
2022/04/02 14:18:22;;;;;;;4.80;2.90;;;;;;;;;;5008705;28;20137;-78
2022/04/02 14:20:57;;;;;;;4.00;2.80;;;;;;;;;;5009871;28;20088;-76
2022/04/02 14:23:32;;;;;;;6.23;3.10;;;;;;;;;;5009920;28;20370;-73
2022/04/02 14:26:31;;;;;;;6.17;3.70;;;;;;;;;;5008239;28;20026;-74
2022/04/02 14:29:16;;;;;;;9.23;3.33;;;;;;;;;;5008278;28;20092;-74
2022/04/02 14:31:57;;;;;;;6.67;3.67;;;;;;;;;;5024720;28;20053;-75
2022/04/02 14:35:01;;;;;;;5.77;3.23;;;;;;;;;;5008525;28;20026;-73
2022/04/02 14:38:00;;;;;;;6.47;2.60;;;;;;;;;;5011636;28;20026;-75
2022/04/02 14:40:45;;;;;;;7.80;3.57;;;;;;;;;;5013346;28;20046;-74
2022/04/02 14:43:39;;;;;;;5.47;2.60;;;;;;;;;;5014577;28;20056;-74
2022/04/02 14:46:32;;;;;;;5.83;2.87;;;;;;;;;;5008229;28;20030;-74
2022/04/02 14:49:25;;;;;;;7.27;3.60;;;;;;;;;;5008174;28;20034;-74
2022/04/02 14:52:28;;;;;;;3.33;2.90;;;;;;;;;;5008045;28;20037;-74
2022/04/02 14:55:12;;;;;;;9.17;2.37;;;;;;;;;;5009393;28;20100;-74
2022/04/02 14:58:18;;;;;;;4.53;2.70;;;;;;;;;;5008257;28;20051;-74
2022/04/02 15:01:22;;;;;;;5.70;3.17;;;;;;;;;;5027752;28;20041;-74
2022/04/02 15:04:07;;;;;;;6.23;3.80;;;;;;;;;;5009850;28;20457;-75
2022/04/02 15:07:10;;;;;;;6.27;3.20;;;;;;;;;;5009771;28;20238;-75
2022/04/02 15:09:38;;;;;;;5.05;2.40;;;;;;;;;;5011656;28;20037;-76
2022/04/02 15:12:11;;;;;;;4.23;2.70;;;;;;;;;;5011715;28;20037;-74
2022/04/02 15:14:38;;;;;;;6.57;2.67;;;;;;;;;;5027907;28;20117;-76